createdAt,value
2023-04-24T00:00:07.944Z,95902.00
2023-04-24T00:01:10.375Z,95904.25
2023-04-24T00:02:12.382Z,95907.22
2023-04-24T00:03:14.558Z,95908.34
2023-04-24T00:04:18.213Z,95913.56
2023-04-24T00:05:20.184Z,95910.59
2023-04-24T00:06:22.068Z,95912.06
2023-04-24T00:07:24.023Z,95915.13
2023-04-24T00:08:25.936Z,95912.31
2023-04-24T00:09:27.741Z,95901.16
2023-04-24T00:10:29.657Z,95908.00
2023-04-24T00:11:31.469Z,95906.97
2023-04-24T00:12:33.206Z,95907.53
2023-04-24T00:13:35.056Z,95910.94
2023-04-24T00:14:36.875Z,95912.28
2023-04-24T00:15:38.681Z,95908.44
2023-04-24T00:16:40.591Z,95914.44
2023-04-24T00:17:42.595Z,95913.09
2023-04-24T00:18:46.457Z,95921.38
2023-04-24T00:19:52.377Z,95918.78
2023-04-24T00:20:54.219Z,95917.75
2023-04-24T00:21:56.594Z,95917.41
2023-04-24T00:22:58.483Z,95917.41
2023-04-24T00:24:00.438Z,95916.38
2023-04-24T00:25:02.319Z,95919.78
2023-04-24T00:26:04.166Z,95924.00
2023-04-24T00:27:06.173Z,95927.84
2023-04-24T00:28:08.016Z,95924.78
2023-04-24T00:29:09.744Z,95927.16
2023-04-24T00:30:11.718Z,95930.00
2023-04-24T00:31:13.704Z,95930.56
2023-04-24T00:32:16.840Z,95925.91
2023-04-24T00:33:18.723Z,95928.31
2023-04-24T00:34:21.777Z,95932.25
2023-04-24T00:35:24.509Z,95933.84
2023-04-24T00:36:26.610Z,95927.03
2023-04-24T00:37:28.473Z,95934.75
2023-04-24T00:38:30.360Z,95934.09
2023-04-24T00:39:32.342Z,95926.69
2023-04-24T00:40:34.257Z,95929.66
2023-04-24T00:41:36.487Z,95927.97
2023-04-24T00:42:38.471Z,95929.53
2023-04-24T00:43:40.766Z,95926.81
2023-04-24T00:44:42.675Z,95928.88
2023-04-24T00:45:44.578Z,95918.22
2023-04-24T00:46:47.344Z,95920.13
2023-04-24T00:47:49.702Z,95921.47
2023-04-24T00:48:52.010Z,95917.88
2023-04-24T00:49:53.860Z,95922.28
2023-04-24T00:50:55.868Z,95915.25
2023-04-24T00:51:58.077Z,95922.38
2023-04-24T00:52:59.902Z,95917.72
2023-04-24T00:54:02.449Z,95917.94
2023-04-24T00:55:04.573Z,95911.38
2023-04-24T00:56:07.038Z,95911.16
2023-04-24T00:57:08.836Z,95909.91
2023-04-24T00:58:10.880Z,95906.81
2023-04-24T00:59:13.451Z,95915.69
2023-04-24T01:00:16.233Z,95904.78
2023-04-24T01:01:19.483Z,95904.31
2023-04-24T01:02:22.473Z,95908.78
2023-04-24T01:03:30.214Z,95907.88
2023-04-24T01:04:32.214Z,95907.06
2023-04-24T01:05:34.679Z,95911.81
2023-04-24T01:06:39.477Z,95913.44
2023-04-24T01:07:45.187Z,95909.00
2023-04-24T01:08:47.862Z,95912.16
2023-04-24T01:09:52.352Z,95901.72
2023-04-24T01:10:55.756Z,95905.69
2023-04-24T01:11:57.841Z,95911.72
2023-04-24T01:12:59.726Z,95911.72
2023-04-24T01:14:01.641Z,95914.09
2023-04-24T01:15:05.112Z,95919.44
2023-04-24T01:16:06.960Z,95911.94
2023-04-24T01:17:10.438Z,95915.00
2023-04-24T01:18:12.441Z,95919.66
2023-04-24T01:19:15.388Z,95913.97
2023-04-24T01:20:17.975Z,95916.03
2023-04-24T01:21:22.644Z,95913.41
2023-04-24T01:22:24.493Z,95911.13
2023-04-24T01:23:26.940Z,95912.72
2023-04-24T01:24:29.956Z,95909.88
2023-04-24T01:25:31.789Z,95909.41
2023-04-24T01:26:33.833Z,95904.53
2023-04-24T01:27:35.751Z,95908.75
2023-04-24T01:28:38.254Z,95910.09
2023-04-24T01:29:40.252Z,95908.63
2023-04-24T01:30:42.621Z,95908.06
2023-04-24T01:31:44.821Z,95900.94
2023-04-24T01:32:47.016Z,95903.00
2023-04-24T01:33:49.004Z,95897.75
2023-04-24T01:34:52.017Z,95906.16
2023-04-24T01:35:54.014Z,95907.72
2023-04-24T01:36:58.827Z,95905.13
2023-04-24T01:38:00.737Z,95902.88
2023-04-24T01:39:02.497Z,95897.56
2023-04-24T01:40:06.068Z,95900.03
2023-04-24T01:41:08.017Z,95901.16
2023-04-24T01:42:09.934Z,95898.00
2023-04-24T01:43:12.537Z,95899.47
2023-04-24T01:44:14.436Z,95900.03
2023-04-24T01:45:16.373Z,95901.16
2023-04-24T01:46:18.240Z,95899.59
2023-04-24T01:47:20.182Z,95894.72
2023-04-24T01:48:22.084Z,95894.59
2023-04-24T01:49:23.857Z,95890.50
2023-04-24T01:50:25.780Z,95900.47
2023-04-24T01:51:28.169Z,95896.06
2023-04-24T01:52:32.429Z,95902.63
2023-04-24T01:53:34.393Z,95892.53
2023-04-24T01:54:36.402Z,95897.00
2023-04-24T01:55:38.222Z,95892.13
2023-04-24T01:56:46.182Z,95890.28
2023-04-24T01:57:48.162Z,95886.78
2023-04-24T01:58:51.672Z,95873.28
2023-04-24T01:59:53.463Z,95879.97
2023-04-24T02:00:57.559Z,95882.69
2023-04-24T02:01:59.457Z,95885.63
2023-04-24T02:03:03.302Z,95875.44
2023-04-24T02:04:06.503Z,95876.56
2023-04-24T02:05:08.966Z,95877.38
2023-04-24T02:06:10.849Z,95872.72
2023-04-24T02:07:12.622Z,95874.50
2023-04-24T02:08:14.524Z,95875.09
2023-04-24T02:09:16.296Z,95870.44
2023-04-24T02:10:18.104Z,95878.81
2023-04-24T02:11:20.025Z,95879.28
2023-04-24T02:12:21.969Z,95878.25
2023-04-24T02:13:23.870Z,95875.75
2023-04-24T02:14:25.724Z,95874.06
2023-04-24T02:15:27.478Z,95878.59
2023-04-24T02:16:33.492Z,95877.81
2023-04-24T02:17:35.255Z,95877.03
2023-04-24T02:18:37.964Z,95881.78
2023-04-24T02:19:40.567Z,95877.38
2023-04-24T02:20:43.026Z,95874.84
2023-04-24T02:21:44.928Z,95873.59
2023-04-24T02:22:46.768Z,95876.53
2023-04-24T02:23:48.546Z,95874.72
2023-04-24T02:24:50.585Z,95873.84
2023-04-24T02:25:54.592Z,95875.53
2023-04-24T02:26:56.986Z,95872.38
2023-04-24T02:27:58.838Z,95868.50
2023-04-24T02:29:01.009Z,95869.53
2023-04-24T02:30:03.913Z,95875.53
2023-04-24T02:31:06.493Z,95867.50
2023-04-24T02:32:08.338Z,95873.50
2023-04-24T02:33:10.155Z,95869.84
2023-04-24T02:34:12.031Z,95864.75
2023-04-24T02:35:14.981Z,95863.28
2023-04-24T02:36:16.910Z,95865.09
2023-04-24T02:37:18.704Z,95864.84
2023-04-24T02:38:20.519Z,95860.75
2023-04-24T02:39:22.279Z,95866.31
2023-04-24T02:40:24.892Z,95864.41
2023-04-24T02:41:32.491Z,95865.31
2023-04-24T02:42:34.719Z,95869.84
2023-04-24T02:43:36.641Z,95863.06
2023-04-24T02:44:38.439Z,95862.59
2023-04-24T02:45:40.501Z,95860.09
2023-04-24T02:46:43.231Z,95863.84
2023-04-24T02:47:45.112Z,95856.78
2023-04-24T02:48:46.930Z,95862.16
2023-04-24T02:49:48.723Z,95864.19
2023-04-24T02:50:51.866Z,95861.03
2023-04-24T02:51:53.669Z,95856.59
2023-04-24T02:52:55.633Z,95863.63
2023-04-24T02:53:57.424Z,95864.63
2023-04-24T02:54:59.185Z,95864.97
2023-04-24T02:56:01.956Z,95867.59
2023-04-24T02:57:03.863Z,95864.19
2023-04-24T02:58:05.694Z,95870.19
2023-04-24T02:59:07.605Z,95854.19
2023-04-24T03:00:10.392Z,95861.13
2023-04-24T03:01:12.192Z,95859.19
2023-04-24T03:02:14.034Z,95861.38
2023-04-24T03:03:16.491Z,95854.69
2023-04-24T03:04:21.640Z,95853.09
2023-04-24T03:05:23.629Z,95855.81
2023-04-24T03:06:25.497Z,95862.63
2023-04-24T03:07:27.708Z,95855.25
2023-04-24T03:08:29.498Z,95857.75
2023-04-24T03:09:31.313Z,95858.78
2023-04-24T03:10:33.500Z,95855.25
2023-04-24T03:11:35.421Z,95855.38
2023-04-24T03:12:37.260Z,95853.91
2023-04-24T03:13:38.983Z,95860.13
2023-04-24T03:14:40.811Z,95854.81
2023-04-24T03:15:42.683Z,95862.84
2023-04-24T03:16:44.576Z,95854.13
2023-04-24T03:17:46.560Z,95856.28
2023-04-24T03:18:48.484Z,95864.91
2023-04-24T03:19:50.290Z,95863.28
2023-04-24T03:20:52.148Z,95860.47
2023-04-24T03:21:54.997Z,95861.16
2023-04-24T03:22:58.591Z,95863.06
2023-04-24T03:24:00.489Z,95863.75
2023-04-24T03:25:02.470Z,95866.13
2023-04-24T03:26:04.318Z,95867.25
2023-04-24T03:27:06.332Z,95864.41
2023-04-24T03:28:08.146Z,95867.16
2023-04-24T03:29:09.948Z,95863.06
2023-04-24T03:30:12.003Z,95863.63
2023-04-24T03:31:13.934Z,95862.16
2023-04-24T03:32:15.821Z,95860.88
2023-04-24T03:33:17.579Z,95861.66
2023-04-24T03:34:19.301Z,95867.22
2023-04-24T03:35:22.541Z,95871.19
2023-04-24T03:36:24.407Z,95866.09
2023-04-24T03:37:27.764Z,95869.75
2023-04-24T03:38:29.596Z,95868.50
2023-04-24T03:39:31.389Z,95864.84
2023-04-24T03:40:34.913Z,95866.31
2023-04-24T03:41:36.736Z,95862.16
2023-04-24T03:42:39.423Z,95862.16
2023-04-24T03:43:41.443Z,95861.34
2023-04-24T03:44:43.258Z,95859.53
2023-04-24T03:45:45.065Z,95861.91
2023-04-24T03:46:46.867Z,95865.31
2023-04-24T03:47:48.812Z,95863.28
2023-04-24T03:48:50.899Z,95862.47
2023-04-24T03:49:53.455Z,95863.28
2023-04-24T03:50:55.224Z,95863.28
2023-04-24T03:51:56.991Z,95863.72
2023-04-24T03:52:59.148Z,95865.31
2023-04-24T03:54:00.909Z,95864.06
2023-04-24T03:55:02.802Z,95868.00
2023-04-24T03:56:04.676Z,95870.19
2023-04-24T03:57:06.537Z,95872.78
2023-04-24T03:58:08.411Z,95876.75
2023-04-24T03:59:10.180Z,95865.31
2023-04-24T04:00:12.377Z,95867.56
2023-04-24T04:01:14.535Z,95873.81
2023-04-24T04:02:16.362Z,95875.06
2023-04-24T04:03:19.303Z,95871.44
2023-04-24T04:04:21.360Z,95876.41
2023-04-24T04:05:23.423Z,95874.38
2023-04-24T04:06:25.337Z,95869.72
2023-04-24T04:07:27.281Z,95872.31
2023-04-24T04:08:30.050Z,95869.63
2023-04-24T04:09:32.234Z,95874.50
2023-04-24T04:10:33.973Z,95871.66
2023-04-24T04:11:36.654Z,95872.09
2023-04-24T04:12:38.532Z,95871.47
2023-04-24T04:13:40.491Z,95879.16
2023-04-24T04:14:42.251Z,95880.28
2023-04-24T04:15:44.015Z,95875.19
2023-04-24T04:16:45.846Z,95872.69
2023-04-24T04:17:48.173Z,95870.63
2023-04-24T04:18:51.067Z,95873.81
2023-04-24T04:19:52.887Z,95877.78
2023-04-24T04:20:54.764Z,95870.28
2023-04-24T04:21:57.398Z,95882.31
2023-04-24T04:22:59.253Z,95870.03
2023-04-24T04:24:01.452Z,95864.03
2023-04-24T04:25:03.655Z,95878.66
2023-04-24T04:26:06.298Z,95866.66
2023-04-24T04:27:08.156Z,95862.22
2023-04-24T04:28:09.925Z,95869.25
2023-04-24T04:29:12.393Z,95864.59
2023-04-24T04:30:14.201Z,95866.72
2023-04-24T04:31:16.100Z,95869.34
2023-04-24T04:32:18.018Z,95865.38
2023-04-24T04:33:20.248Z,95871.66
2023-04-24T04:34:22.415Z,95868.78
2023-04-24T04:35:24.453Z,95870.94
2023-04-24T04:36:27.250Z,95869.69
2023-04-24T04:37:29.859Z,95866.28
2023-04-24T04:38:31.773Z,95869.94
2023-04-24T04:39:33.621Z,95869.69
2023-04-24T04:40:35.353Z,95864.03
2023-04-24T04:41:37.136Z,95870.38
2023-04-24T04:42:41.599Z,95870.69
2023-04-24T04:43:43.986Z,95871.00
2023-04-24T04:44:46.793Z,95872.38
2023-04-24T04:45:49.796Z,95874.44
2023-04-24T04:46:54.176Z,95879.88
2023-04-24T04:47:56.476Z,95875.34
2023-04-24T04:48:58.655Z,95878.41
2023-04-24T04:50:01.057Z,95875.25
2023-04-24T04:51:02.863Z,95875.72
2023-04-24T04:52:04.715Z,95870.16
2023-04-24T04:53:07.213Z,95880.38
2023-04-24T04:54:08.971Z,95878.91
2023-04-24T04:55:10.825Z,95880.25
2023-04-24T04:56:12.699Z,95876.38
2023-04-24T04:57:14.567Z,95883.97
2023-04-24T04:58:16.397Z,95881.38
2023-04-24T04:59:18.225Z,95884.13
2023-04-24T05:00:20.443Z,95885.00
2023-04-24T05:01:24.324Z,95887.53
2023-04-24T05:02:26.219Z,95889.03
2023-04-24T05:03:28.121Z,95886.41
2023-04-24T05:04:30.385Z,95891.16
2023-04-24T05:05:32.491Z,95892.19
2023-04-24T05:06:34.455Z,95891.63
2023-04-24T05:07:36.314Z,95887.75
2023-04-24T05:08:38.115Z,95884.69
2023-04-24T05:09:39.938Z,95897.84
2023-04-24T05:10:41.768Z,95891.38
2023-04-24T05:11:43.571Z,95894.56
2023-04-24T05:12:46.490Z,95895.91
2023-04-24T05:13:48.500Z,95900.91
2023-04-24T05:14:50.352Z,95895.22
2023-04-24T05:15:52.367Z,95897.03
2023-04-24T05:16:54.315Z,95901.00
2023-04-24T05:17:57.492Z,95895.22
2023-04-24T05:18:59.888Z,95905.66
2023-04-24T05:20:02.377Z,95899.88
2023-04-24T05:21:04.224Z,95908.75
2023-04-24T05:22:07.954Z,95903.88
2023-04-24T05:23:09.938Z,95904.66
2023-04-24T05:24:11.736Z,95908.50
2023-04-24T05:25:13.722Z,95908.75
2023-04-24T05:26:16.679Z,95904.56
2023-04-24T05:27:18.575Z,95908.91
2023-04-24T05:28:21.213Z,95912.19
2023-04-24T05:29:23.098Z,95910.94
2023-04-24T05:30:24.959Z,95917.97
2023-04-24T05:31:26.877Z,95913.66
2023-04-24T05:32:28.837Z,95917.06
2023-04-24T05:33:30.667Z,95919.44
2023-04-24T05:34:32.749Z,95920.00
2023-04-24T05:35:34.465Z,95925.56
2023-04-24T05:36:36.322Z,95923.31
2023-04-24T05:37:38.078Z,95926.81
2023-04-24T05:38:39.772Z,95926.13
2023-04-24T05:39:43.075Z,95923.03
2023-04-24T05:40:45.303Z,95932.00
2023-04-24T05:41:47.237Z,95933.38
2023-04-24T05:42:49.004Z,95931.34
2023-04-24T05:43:50.966Z,95933.59
2023-04-24T05:44:53.692Z,95924.75
2023-04-24T05:45:56.502Z,95934.16
2023-04-24T05:46:58.480Z,95928.50
2023-04-24T05:48:00.418Z,95929.06
2023-04-24T05:49:02.410Z,95923.38
2023-04-24T05:50:04.379Z,95921.56
2023-04-24T05:51:06.265Z,95922.59
2023-04-24T05:52:11.237Z,95923.84
2023-04-24T05:53:13.019Z,95923.94
2023-04-24T05:54:14.872Z,95926.00
2023-04-24T05:55:19.684Z,95926.22
2023-04-24T05:56:21.695Z,95927.03
2023-04-24T05:57:23.492Z,95917.94
2023-04-24T05:58:25.254Z,95913.50
2023-04-24T05:59:27.568Z,95921.56
2023-04-24T06:00:30.043Z,95922.38
2023-04-24T06:01:32.728Z,95929.19
2023-04-24T06:02:34.676Z,95928.84
2023-04-24T06:03:36.656Z,95926.56
2023-04-24T06:04:38.750Z,95931.78
2023-04-24T06:05:40.962Z,95931.22
2023-04-24T06:06:42.675Z,95930.00
2023-04-24T06:07:44.664Z,95939.31
2023-04-24T06:08:46.749Z,95932.38
2023-04-24T06:09:48.493Z,95941.56
2023-04-24T06:10:50.830Z,95930.66
2023-04-24T06:11:55.538Z,95930.66
2023-04-24T06:13:01.688Z,95943.50
2023-04-24T06:14:03.499Z,95943.84
2023-04-24T06:15:05.522Z,95939.19
2023-04-24T06:16:07.677Z,95940.31
2023-04-24T06:17:09.525Z,95936.44
2023-04-24T06:18:11.977Z,95946.44
2023-04-24T06:19:13.935Z,95941.56
2023-04-24T06:20:15.850Z,95946.31
2023-04-24T06:21:17.827Z,95944.81
2023-04-24T06:22:19.645Z,95951.09
2023-04-24T06:23:21.523Z,95949.28
2023-04-24T06:24:23.328Z,95955.50
2023-04-24T06:25:28.159Z,95954.50
2023-04-24T06:26:29.986Z,95952.09
2023-04-24T06:27:31.756Z,95947.00
2023-04-24T06:28:33.590Z,95955.75
2023-04-24T06:29:35.597Z,95957.00
2023-04-24T06:30:37.385Z,95954.41
2023-04-24T06:31:39.282Z,95955.97
2023-04-24T06:32:41.173Z,95949.97
2023-04-24T06:33:42.968Z,95953.72
2023-04-24T06:34:45.346Z,95951.88
2023-04-24T06:35:47.214Z,95953.81
2023-04-24T06:36:49.173Z,95951.19
2023-04-24T06:37:51.487Z,95950.19
2023-04-24T06:38:53.340Z,95953.94
2023-04-24T06:39:55.140Z,95958.13
2023-04-24T06:40:56.969Z,95954.50
2023-04-24T06:41:58.822Z,95955.06
2023-04-24T06:43:01.443Z,95954.06
2023-04-24T06:44:03.317Z,95948.56
2023-04-24T06:45:06.565Z,95953.59
2023-04-24T06:46:08.456Z,95960.84
2023-04-24T06:47:14.903Z,95961.97
2023-04-24T06:48:16.745Z,95954.72
2023-04-24T06:49:18.663Z,95954.00
2023-04-24T06:50:20.517Z,95957.75
2023-04-24T06:51:23.662Z,95957.53
2023-04-24T06:52:25.967Z,95957.31
2023-04-24T06:53:28.672Z,95965.72
2023-04-24T06:54:30.971Z,95965.47
2023-04-24T06:55:32.754Z,95964.00
2023-04-24T06:56:35.434Z,95965.00
2023-04-24T06:57:37.676Z,95966.97
2023-04-24T06:58:39.674Z,95964.72
2023-04-24T06:59:41.892Z,95975.81
2023-04-24T07:00:43.803Z,95966.97
2023-04-24T07:01:45.769Z,95970.72
2023-04-24T07:02:47.760Z,95970.03
2023-04-24T07:03:49.877Z,95983.66
2023-04-24T07:04:51.909Z,95982.16
2023-04-24T07:05:54.566Z,95978.63
2023-04-24T07:06:59.206Z,95984.41
2023-04-24T07:08:01.746Z,95983.97
2023-04-24T07:09:04.606Z,95979.19
2023-04-24T07:10:06.895Z,95981.03
2023-04-24T07:11:08.626Z,95982.16
2023-04-24T07:12:11.870Z,95982.25
2023-04-24T07:13:13.681Z,95981.00
2023-04-24T07:14:15.491Z,95981.00
2023-04-24T07:15:17.635Z,95986.22
2023-04-24T07:16:19.499Z,95983.41
2023-04-24T07:17:21.343Z,95987.34
2023-04-24T07:18:23.274Z,95985.31
2023-04-24T07:19:25.255Z,95982.22
2023-04-24T07:20:27.307Z,95981.19
2023-04-24T07:21:29.349Z,95985.94
2023-04-24T07:22:31.134Z,95981.28
2023-04-24T07:23:32.899Z,95986.28
2023-04-24T07:24:34.912Z,95986.28
2023-04-24T07:25:36.793Z,95992.31
2023-04-24T07:26:40.264Z,95985.03
2023-04-24T07:27:42.121Z,95989.13
2023-04-24T07:28:44.111Z,95990.53
2023-04-24T07:29:45.968Z,95986.78
2023-04-24T07:30:48.085Z,95989.41
2023-04-24T07:31:49.935Z,95993.84
2023-04-24T07:32:51.755Z,95987.81
2023-04-24T07:33:53.634Z,95995.41
2023-04-24T07:34:55.508Z,95993.94
2023-04-24T07:35:57.722Z,95989.03
2023-04-24T07:36:59.586Z,95984.03
2023-04-24T07:38:01.434Z,95991.66
2023-04-24T07:39:03.729Z,95990.19
2023-04-24T07:40:05.870Z,95992.81
2023-04-24T07:41:07.695Z,95990.34
2023-04-24T07:42:09.683Z,95990.56
2023-04-24T07:43:11.862Z,95992.97
2023-04-24T07:44:13.691Z,95991.34
2023-04-24T07:45:15.882Z,95990.22
2023-04-24T07:46:18.502Z,95992.97
2023-04-24T07:47:20.330Z,96003.75
2023-04-24T07:48:24.360Z,96001.13
2023-04-24T07:49:26.180Z,96001.47
2023-04-24T07:50:27.967Z,95998.38
2023-04-24T07:51:30.259Z,95997.69
2023-04-24T07:52:32.032Z,95995.06
2023-04-24T07:53:34.380Z,96000.06
2023-04-24T07:54:36.122Z,96000.06
2023-04-24T07:55:37.974Z,95994.63
2023-04-24T07:56:42.585Z,96000.75
2023-04-24T07:57:44.516Z,95996.31
2023-04-24T07:58:46.352Z,95996.88
2023-04-24T07:59:48.105Z,95997.44
2023-04-24T08:00:49.973Z,96007.47
2023-04-24T08:01:51.668Z,95998.25
2023-04-24T08:02:53.630Z,96001.13
2023-04-24T08:03:55.851Z,95999.06
2023-04-24T08:05:00.144Z,96004.66
2023-04-24T08:06:02.586Z,96012.50
2023-04-24T08:07:04.562Z,96004.09
2023-04-24T08:08:06.331Z,96008.84
2023-04-24T08:09:08.740Z,96005.22
2023-04-24T08:10:13.459Z,96005.53
2023-04-24T08:11:15.454Z,96008.72
2023-04-24T08:12:17.187Z,96011.22
2023-04-24T08:13:18.937Z,96010.66
2023-04-24T08:14:22.384Z,96013.50
2023-04-24T08:15:24.284Z,96012.16
2023-04-24T08:16:26.149Z,96009.63
2023-04-24T08:17:28.236Z,96015.75
2023-04-24T08:18:30.130Z,96007.00
2023-04-24T08:19:32.569Z,96016.19
2023-04-24T08:20:34.403Z,96013.69
2023-04-24T08:21:36.262Z,96013.69
2023-04-24T08:22:38.108Z,96012.44
2023-04-24T08:23:39.851Z,96022.88
2023-04-24T08:24:43.422Z,96020.75
2023-04-24T08:25:45.414Z,96021.63
2023-04-24T08:26:48.477Z,96013.88
2023-04-24T08:27:50.254Z,96017.66
2023-04-24T08:28:52.032Z,96017.06
2023-04-24T08:29:56.651Z,96021.88
2023-04-24T08:30:58.431Z,96024.22
2023-04-24T08:32:00.363Z,96012.75
2023-04-24T08:33:02.305Z,96019.91
2023-04-24T08:34:04.216Z,96024.56
2023-04-24T08:35:06.435Z,96021.41
2023-04-24T08:36:08.540Z,96024.22
2023-04-24T08:37:10.680Z,96026.28
2023-04-24T08:38:12.562Z,96029.47
2023-04-24T08:39:14.493Z,96027.41
2023-04-24T08:40:17.086Z,96024.34
2023-04-24T08:41:19.972Z,96034.59
2023-04-24T08:42:22.153Z,96029.09
2023-04-24T08:43:25.095Z,96034.88
2023-04-24T08:44:26.884Z,96031.16
2023-04-24T08:45:28.726Z,96034.25
2023-04-24T08:46:31.746Z,96034.13
2023-04-24T08:47:34.359Z,96035.97
2023-04-24T08:48:36.370Z,96039.69
2023-04-24T08:49:38.906Z,96030.50
2023-04-24T08:50:44.006Z,96038.56
2023-04-24T08:51:48.267Z,96037.09
2023-04-24T08:52:58.198Z,96043.09
2023-04-24T08:53:59.979Z,96040.38
2023-04-24T08:55:02.682Z,96040.81
2023-04-24T08:56:06.522Z,96040.59
2023-04-24T08:57:09.154Z,96043.56
2023-04-24T08:58:11.714Z,96045.50
2023-04-24T08:59:14.002Z,96046.84
2023-04-24T09:00:16.010Z,96047.41
2023-04-24T09:01:18.634Z,96041.72
2023-04-24T09:02:21.143Z,96054.56
2023-04-24T09:03:23.402Z,96043.06
2023-04-24T09:04:26.569Z,96052.50
2023-04-24T09:05:29.433Z,96056.69
2023-04-24T09:06:33.682Z,96055.69
2023-04-24T09:07:37.064Z,96058.31
2023-04-24T09:08:41.158Z,96057.81
2023-04-24T09:09:43.524Z,96054.75
2023-04-24T09:10:45.942Z,96055.31
2023-04-24T09:11:48.562Z,96054.84
2023-04-24T09:12:51.714Z,96051.66
2023-04-24T09:13:54.680Z,96053.16
2023-04-24T09:14:57.749Z,96053.38
2023-04-24T09:16:01.394Z,96054.88
2023-04-24T09:17:03.544Z,96050.13
2023-04-24T09:18:06.114Z,96053.75
2023-04-24T09:19:08.026Z,96057.75
2023-04-24T09:20:09.852Z,96061.94
2023-04-24T09:21:11.683Z,96053.53
2023-04-24T09:22:14.549Z,96060.44
2023-04-24T09:23:19.577Z,96066.22
2023-04-24T09:24:24.011Z,96066.16
2023-04-24T09:25:34.912Z,96060.66
2023-04-24T09:26:37.460Z,96067.72
2023-04-24T09:27:43.311Z,96063.06
2023-04-24T09:28:46.602Z,96063.41
2023-04-24T09:29:57.908Z,96057.16
2023-04-24T09:31:03.525Z,96065.22
2023-04-24T09:32:23.116Z,96062.59
2023-04-24T09:33:25.365Z,96067.91
2023-04-24T09:34:28.236Z,96064.75
2023-04-24T09:35:29.987Z,96068.75
2023-04-24T09:36:34.582Z,96067.81
2023-04-24T09:37:38.060Z,96063.34
2023-04-24T09:38:40.498Z,96062.09
2023-04-24T09:39:42.628Z,96066.75
2023-04-24T09:40:44.819Z,96066.53
2023-04-24T09:41:58.636Z,96059.03
2023-04-24T09:43:02.378Z,96068.78
2023-04-24T09:44:16.510Z,96057.03
2023-04-24T09:45:18.457Z,96057.38
2023-04-24T09:46:20.307Z,96060.09
2023-04-24T09:47:22.365Z,96055.44
2023-04-24T09:48:33.796Z,96047.56
2023-04-24T09:49:37.100Z,96056.22
2023-04-24T09:50:38.992Z,96052.66
2023-04-24T09:51:42.542Z,96044.81
2023-04-24T09:52:45.723Z,96050.81
2023-04-24T09:53:48.638Z,96048.78
2023-04-24T09:54:54.387Z,96050.13
2023-04-24T09:55:56.333Z,96059.56
2023-04-24T09:56:58.286Z,96057.19
2023-04-24T09:58:06.311Z,96053.00
2023-04-24T09:59:08.759Z,96056.06
2023-04-24T10:00:11.197Z,96057.56
2023-04-24T10:01:13.874Z,96056.13
2023-04-24T10:02:20.211Z,96049.63
2023-04-24T10:03:22.360Z,96048.91
2023-04-24T10:04:25.716Z,96051.88
2023-04-24T10:05:29.006Z,96059.78
2023-04-24T10:06:35.174Z,96052.50
2023-04-24T10:07:38.790Z,96055.44
2023-04-24T10:08:40.625Z,96052.66
2023-04-24T10:09:43.166Z,96048.56
2023-04-24T10:10:46.428Z,96048.56
2023-04-24T10:11:51.236Z,96045.69
2023-04-24T10:12:54.050Z,96048.66
2023-04-24T10:13:57.194Z,96047.03
2023-04-24T10:14:59.761Z,96043.88
2023-04-24T10:16:02.192Z,96045.94
2023-04-24T10:17:04.323Z,96041.81
2023-04-24T10:18:07.802Z,96045.41
2023-04-24T10:19:09.715Z,96043.81
2023-04-24T10:20:11.747Z,96049.81
2023-04-24T10:21:13.856Z,96047.31
2023-04-24T10:22:17.040Z,96044.47
2023-04-24T10:23:20.550Z,96038.66
2023-04-24T10:24:22.408Z,96041.75
2023-04-24T10:25:25.561Z,96034.75
2023-04-24T10:26:28.008Z,96043.19
2023-04-24T10:27:32.175Z,96042.13
2023-04-24T10:28:35.518Z,96038.16
2023-04-24T10:29:37.874Z,96031.44
2023-04-24T10:30:40.510Z,96038.97
2023-04-24T10:31:43.157Z,96036.56
2023-04-24T10:32:45.192Z,96035.47
2023-04-24T10:33:47.363Z,96034.50
2023-04-24T10:34:49.215Z,96042.03
2023-04-24T10:35:52.306Z,96046.94
2023-04-24T10:36:56.527Z,96045.38
2023-04-24T10:38:02.893Z,96049.47
2023-04-24T10:39:07.896Z,96040.13
2023-04-24T10:40:11.567Z,96035.13
2023-04-24T10:41:20.854Z,96042.34
2023-04-24T10:42:23.366Z,96038.47
2023-04-24T10:43:25.184Z,96033.63
2023-04-24T10:44:27.907Z,96032.69
2023-04-24T10:45:29.885Z,96037.47
2023-04-24T10:46:32.246Z,96037.13
2023-04-24T10:47:43.769Z,96031.91
2023-04-24T10:48:53.350Z,96032.91
2023-04-24T10:49:55.194Z,96027.66
2023-04-24T10:50:57.193Z,96037.53
2023-04-24T10:52:03.755Z,96028.72
2023-04-24T10:53:09.414Z,96031.91
2023-04-24T10:54:29.940Z,96033.56
2023-04-24T10:55:42.645Z,96033.97
2023-04-24T10:56:44.448Z,96029.53
2023-04-24T10:58:13.128Z,96027.22
2023-04-24T10:59:25.036Z,96030.09
2023-04-24T11:00:29.653Z,96015.78
2023-04-24T11:01:33.612Z,96025.56
2023-04-24T11:02:39.756Z,96025.16
2023-04-24T11:03:52.043Z,96022.06
2023-04-24T11:04:54.111Z,96011.66
2023-04-24T11:06:00.365Z,96010.66
2023-04-24T11:07:02.426Z,96014.84
2023-04-24T11:08:17.906Z,96014.66
2023-04-24T11:09:22.161Z,96017.81
2023-04-24T11:10:28.108Z,96013.00
2023-04-24T11:11:31.040Z,96008.47
2023-04-24T11:12:36.364Z,96004.59
2023-04-24T11:13:56.135Z,96005.28
2023-04-24T11:14:58.441Z,96011.03
2023-04-24T11:16:18.888Z,96004.41
2023-04-24T11:17:31.826Z,96012.84
2023-04-24T11:18:40.577Z,96008.41
2023-04-24T11:19:42.473Z,96006.97
2023-04-24T11:20:45.140Z,96002.84
2023-04-24T11:21:57.036Z,96005.03
2023-04-24T11:23:04.546Z,95997.56
2023-04-24T11:24:25.027Z,95992.75
2023-04-24T11:25:27.028Z,95993.91
2023-04-24T11:26:33.667Z,95994.78
2023-04-24T11:27:43.433Z,95991.41
2023-04-24T11:28:45.943Z,95998.38
2023-04-24T11:30:02.307Z,95998.84
2023-04-24T11:31:23.278Z,95988.44
2023-04-24T11:32:25.188Z,95993.78
2023-04-24T11:33:27.085Z,95990.84
2023-04-24T11:34:28.820Z,95988.03
2023-04-24T11:35:31.844Z,95994.66
2023-04-24T11:36:33.643Z,95993.84
2023-04-24T11:37:39.670Z,95988.56
2023-04-24T11:38:42.061Z,95986.94
2023-04-24T11:39:43.819Z,95993.25
2023-04-24T11:40:45.936Z,95990.06
2023-04-24T11:41:49.731Z,95990.00
2023-04-24T11:42:52.343Z,96002.81
2023-04-24T11:43:55.900Z,96003.66
2023-04-24T11:44:58.860Z,95994.81
2023-04-24T11:46:01.608Z,96003.00
2023-04-24T11:47:03.457Z,95991.91
2023-04-24T11:48:05.397Z,95993.66
2023-04-24T11:49:07.962Z,95997.56
2023-04-24T11:50:11.503Z,95994.13
2023-04-24T11:51:13.982Z,95996.53
2023-04-24T11:52:17.142Z,95992.19
2023-04-24T11:53:23.254Z,95998.94
2023-04-24T11:54:25.772Z,95998.88
2023-04-24T11:55:28.596Z,95997.00
2023-04-24T11:56:30.766Z,96000.94
2023-04-24T11:57:37.666Z,95988.41
2023-04-24T11:58:40.768Z,95995.38
2023-04-24T11:59:42.785Z,95993.47
2023-04-24T12:00:47.079Z,95994.25
2023-04-24T12:01:50.069Z,95996.41
2023-04-24T12:02:52.859Z,96000.16
2023-04-24T12:04:01.577Z,95993.41
2023-04-24T12:05:04.141Z,96001.50
2023-04-24T12:06:09.047Z,95997.19
2023-04-24T12:07:11.124Z,96001.66
2023-04-24T12:08:12.961Z,95998.09
2023-04-24T12:09:18.537Z,95994.44
2023-04-24T12:10:24.241Z,95995.06
2023-04-24T12:11:27.074Z,95988.78
2023-04-24T12:12:29.244Z,96000.34
2023-04-24T12:13:31.897Z,96001.22
2023-04-24T12:14:33.755Z,95992.88
2023-04-24T12:15:35.740Z,95996.75
2023-04-24T12:16:37.752Z,95998.38
2023-04-24T12:17:42.629Z,95988.44
2023-04-24T12:18:45.319Z,95998.38